createdAt,value
2023-03-13T00:02:40.776Z,7.65
2023-03-13T00:05:43.390Z,7.66
2023-03-13T00:08:46.305Z,7.63
2023-03-13T00:11:50.343Z,7.62
2023-03-13T00:14:52.944Z,7.64
2023-03-13T00:17:55.516Z,7.67
2023-03-13T00:21:01.441Z,7.71
2023-03-13T00:24:05.019Z,7.73
2023-03-13T00:27:08.968Z,7.79
2023-03-13T00:30:12.847Z,7.87
2023-03-13T00:33:15.474Z,7.90
2023-03-13T00:36:19.396Z,7.94
2023-03-13T00:39:22.578Z,8.01
2023-03-13T00:42:26.567Z,8.08
2023-03-13T00:45:29.389Z,8.14
2023-03-13T00:48:33.099Z,8.21
2023-03-13T00:51:36.004Z,8.26
2023-03-13T00:54:39.395Z,8.30
2023-03-13T00:57:43.507Z,8.35
2023-03-13T01:00:46.502Z,8.41
2023-03-13T01:03:52.241Z,8.47
2023-03-13T01:06:54.995Z,8.50
2023-03-13T01:09:57.763Z,8.53
2023-03-13T01:13:02.082Z,8.53
2023-03-13T01:16:06.548Z,8.57
2023-03-13T01:19:13.112Z,8.61
2023-03-13T01:22:16.138Z,8.63
2023-03-13T01:25:19.036Z,8.68
2023-03-13T01:28:23.400Z,8.77
2023-03-13T01:31:28.065Z,8.86
2023-03-13T01:34:30.828Z,8.97
2023-03-13T01:37:34.572Z,9.05
2023-03-13T01:40:41.928Z,9.11
2023-03-13T01:43:46.854Z,9.15
2023-03-13T01:46:49.762Z,9.23
2023-03-13T01:49:53.750Z,9.28
2023-03-13T01:52:56.551Z,9.30
2023-03-13T01:56:02.086Z,9.37
2023-03-13T01:59:09.343Z,9.39
2023-03-13T02:02:12.680Z,9.45
2023-03-13T02:05:17.156Z,9.48
2023-03-13T02:08:26.565Z,9.51
2023-03-13T02:11:40.891Z,9.52
2023-03-13T02:14:47.133Z,9.53
2023-03-13T02:17:51.368Z,9.56
2023-03-13T02:21:02.410Z,9.57
2023-03-13T02:24:14.913Z,9.62
2023-03-13T02:27:19.064Z,9.64
2023-03-13T02:30:22.140Z,9.64
2023-03-13T02:33:28.757Z,9.67
2023-03-13T02:36:32.059Z,9.66
2023-03-13T02:39:35.711Z,9.67
2023-03-13T02:42:42.335Z,9.70
2023-03-13T02:46:02.143Z,9.74
2023-03-13T02:49:20.587Z,9.76
2023-03-13T02:52:27.293Z,9.75
2023-03-13T02:55:34.149Z,9.75
2023-03-13T02:58:49.237Z,9.77
2023-03-13T03:01:53.617Z,9.77
2023-03-13T03:04:56.375Z,9.68
2023-03-13T03:07:59.178Z,9.67
2023-03-13T03:11:02.183Z,9.67
2023-03-13T03:14:06.586Z,9.64
2023-03-13T03:17:09.484Z,9.64
2023-03-13T03:20:12.935Z,9.61
2023-03-13T03:23:15.851Z,9.59
2023-03-13T03:26:19.225Z,9.55
2023-03-13T03:29:23.265Z,9.57
2023-03-13T03:32:25.991Z,9.54
2023-03-13T03:35:29.146Z,9.47
2023-03-13T03:38:32.965Z,9.49
2023-03-13T03:41:35.844Z,9.45
2023-03-13T03:44:39.942Z,9.46
2023-03-13T03:47:42.919Z,9.44
2023-03-13T03:50:45.874Z,9.46
2023-03-13T03:53:48.699Z,9.43
2023-03-13T03:56:51.505Z,9.43
2023-03-13T03:59:55.653Z,9.41
2023-03-13T04:02:58.601Z,9.40
2023-03-13T04:06:01.514Z,9.40
2023-03-13T04:09:04.844Z,9.41
2023-03-13T04:12:08.368Z,9.48
2023-03-13T04:15:13.332Z,9.48
2023-03-13T04:18:16.589Z,9.69
2023-03-13T04:21:19.308Z,10.19
2023-03-13T04:24:22.210Z,10.67
2023-03-13T04:27:25.140Z,10.85
2023-03-13T04:30:29.391Z,11.01
2023-03-13T04:33:32.287Z,11.26
2023-03-13T04:36:34.976Z,11.34
2023-03-13T04:39:37.822Z,11.49
2023-03-13T04:42:41.023Z,11.64
2023-03-13T04:45:45.309Z,11.77
2023-03-13T04:48:48.159Z,11.97
2023-03-13T04:51:50.953Z,12.01
2023-03-13T04:54:53.759Z,12.05
2023-03-13T04:57:56.629Z,11.99
2023-03-13T05:01:00.925Z,11.98
2023-03-13T05:04:03.628Z,12.06
2023-03-13T05:07:06.481Z,12.13
2023-03-13T05:10:10.062Z,12.09
2023-03-13T05:13:12.906Z,11.97
2023-03-13T05:16:17.200Z,12.11
2023-03-13T05:19:20.015Z,12.03
2023-03-13T05:22:22.758Z,12.09
2023-03-13T05:25:25.507Z,12.04
2023-03-13T05:28:28.343Z,12.09
2023-03-13T05:31:32.696Z,12.23
2023-03-13T05:34:35.385Z,12.22
2023-03-13T05:37:40.850Z,12.23
2023-03-13T05:40:44.012Z,12.27
2023-03-13T05:43:46.728Z,12.36
2023-03-13T05:46:50.857Z,12.30
2023-03-13T05:49:53.805Z,12.40
2023-03-13T05:52:56.538Z,12.41
2023-03-13T05:55:59.253Z,12.40
2023-03-13T05:59:01.958Z,12.38
2023-03-13T06:02:06.292Z,12.33
2023-03-13T06:05:09.551Z,12.41
2023-03-13T06:08:12.273Z,12.51
2023-03-13T06:11:15.170Z,12.45
2023-03-13T06:14:17.908Z,12.39
2023-03-13T06:17:22.234Z,12.45
2023-03-13T06:20:25.028Z,12.52
2023-03-13T06:23:28.195Z,12.60
2023-03-13T06:26:31.025Z,12.49
2023-03-13T06:29:33.795Z,12.68
2023-03-13T06:32:38.089Z,12.75
2023-03-13T06:35:55.209Z,12.60
2023-03-13T06:38:58.918Z,12.60
2023-03-13T06:42:01.631Z,12.65
2023-03-13T06:45:04.812Z,12.79
2023-03-13T06:48:09.233Z,12.90
2023-03-13T06:51:13.150Z,12.90
2023-03-13T06:54:15.924Z,12.78
2023-03-13T06:57:18.604Z,12.77
2023-03-13T07:00:22.418Z,12.74
2023-03-13T07:03:26.811Z,12.83
2023-03-13T07:06:29.750Z,12.82
2023-03-13T07:09:32.604Z,12.62
2023-03-13T07:12:35.626Z,12.67
2023-03-13T07:15:40.401Z,12.74
2023-03-13T07:18:45.117Z,12.77
2023-03-13T07:21:49.793Z,12.81
2023-03-13T07:24:52.702Z,12.65
2023-03-13T07:27:55.497Z,12.78
2023-03-13T07:31:05.334Z,12.87
2023-03-13T07:34:09.600Z,12.84
2023-03-13T07:37:12.729Z,12.99
2023-03-13T07:40:15.555Z,13.03
2023-03-13T07:43:18.767Z,12.97
2023-03-13T07:46:21.774Z,12.96
2023-03-13T07:49:26.835Z,13.02
2023-03-13T07:52:29.788Z,13.00
2023-03-13T07:55:32.567Z,13.08
2023-03-13T07:58:36.943Z,13.13
2023-03-13T08:01:39.727Z,13.18
2023-03-13T08:04:44.149Z,13.17
2023-03-13T08:07:46.938Z,13.27
2023-03-13T08:10:49.871Z,13.35
2023-03-13T08:13:53.271Z,13.40
2023-03-13T08:16:56.043Z,13.47
2023-03-13T08:20:00.169Z,13.56
2023-03-13T08:23:02.890Z,13.66
2023-03-13T08:26:07.976Z,13.79
2023-03-13T08:29:12.506Z,13.88
2023-03-13T08:32:15.353Z,13.97
2023-03-13T08:35:19.478Z,14.02
2023-03-13T08:38:22.187Z,14.11
2023-03-13T08:41:26.992Z,14.07
2023-03-13T08:44:29.793Z,14.15
2023-03-13T08:47:33.417Z,14.15
2023-03-13T08:50:37.608Z,14.20
2023-03-13T08:53:41.956Z,14.31
2023-03-13T08:56:44.721Z,14.37
2023-03-13T08:59:47.524Z,14.35
2023-03-13T09:02:50.249Z,14.40
2023-03-13T09:05:56.254Z,14.43
2023-03-13T09:08:59.518Z,14.51
2023-03-13T09:12:02.347Z,14.60
2023-03-13T09:15:05.740Z,14.61
2023-03-13T09:18:08.660Z,14.61
2023-03-13T09:21:15.507Z,14.77
2023-03-13T09:24:18.663Z,14.83
2023-03-13T09:27:21.673Z,14.94
2023-03-13T09:30:24.696Z,15.16
2023-03-13T09:33:27.630Z,15.21
2023-03-13T09:36:31.941Z,15.20
2023-03-13T09:39:34.635Z,15.32
2023-03-13T09:42:46.670Z,15.31
2023-03-13T09:45:53.370Z,15.31
2023-03-13T09:49:00.775Z,15.42
2023-03-13T09:52:16.581Z,15.74
2023-03-13T09:55:22.098Z,16.13
2023-03-13T09:58:29.631Z,16.48
2023-03-13T10:01:34.524Z,16.58
2023-03-13T10:04:43.981Z,16.60
2023-03-13T10:07:48.715Z,16.60
2023-03-13T10:10:57.487Z,16.58
2023-03-13T10:14:05.768Z,16.62
2023-03-13T10:17:17.710Z,16.72
2023-03-13T10:20:25.492Z,17.04
2023-03-13T10:23:40.488Z,17.34
2023-03-13T10:26:43.390Z,17.50
2023-03-13T10:29:46.290Z,17.80
2023-03-13T10:32:49.396Z,17.88
2023-03-13T10:36:05.794Z,17.75
2023-03-13T10:39:16.854Z,17.61
2023-03-13T10:42:24.796Z,17.57
2023-03-13T10:45:28.449Z,17.42
2023-03-13T10:48:37.420Z,17.38
2023-03-13T10:51:41.822Z,17.47
2023-03-13T10:54:46.820Z,17.63
2023-03-13T10:57:59.819Z,17.76
2023-03-13T11:01:18.885Z,18.15
2023-03-13T11:04:30.836Z,18.44
2023-03-13T11:07:36.121Z,18.44
2023-03-13T11:10:54.725Z,18.34
2023-03-13T11:14:09.722Z,18.18
2023-03-13T11:17:31.505Z,17.99
2023-03-13T11:20:36.978Z,17.89
2023-03-13T11:23:46.207Z,17.81
2023-03-13T11:27:04.752Z,17.93
2023-03-13T11:30:20.747Z,18.06
2023-03-13T11:33:37.697Z,18.56
2023-03-13T11:36:48.862Z,19.17
2023-03-13T11:40:10.984Z,19.66
2023-03-13T11:43:35.420Z,19.89
2023-03-13T11:46:51.176Z,20.15
2023-03-13T11:50:27.343Z,20.46
2023-03-13T11:53:46.167Z,20.68
2023-03-13T11:56:55.310Z,20.98
2023-03-13T12:00:20.209Z,21.15
2023-03-13T12:03:32.805Z,21.01
2023-03-13T12:06:39.145Z,21.16
2023-03-13T12:09:45.724Z,21.26
2023-03-13T12:12:53.339Z,21.36
2023-03-13T12:16:01.700Z,21.46
2023-03-13T12:19:04.549Z,21.32
2023-03-13T12:22:16.148Z,21.40
2023-03-13T12:25:24.883Z,21.47
2023-03-13T12:28:36.150Z,21.57
2023-03-13T12:31:44.974Z,21.61
2023-03-13T12:34:56.582Z,21.64
2023-03-13T12:38:06.410Z,21.75
2023-03-13T12:41:20.678Z,21.92
2023-03-13T12:44:24.841Z,21.98
2023-03-13T12:47:33.526Z,22.10
2023-03-13T12:50:45.917Z,22.21
2023-03-13T12:54:25.407Z,22.26
2023-03-13T12:58:10.531Z,22.39
2023-03-13T13:01:20.619Z,22.43
2023-03-13T13:04:28.432Z,22.21
2023-03-13T13:07:34.093Z,22.11
2023-03-13T13:10:36.969Z,21.97
2023-03-13T13:13:41.148Z,21.91
2023-03-13T13:16:45.406Z,21.86
2023-03-13T13:19:49.672Z,21.88
2023-03-13T13:22:53.141Z,21.88
2023-03-13T13:25:57.565Z,21.78
2023-03-13T13:29:02.211Z,21.59
2023-03-13T13:32:07.120Z,21.53
2023-03-13T13:35:30.432Z,21.23
2023-03-13T13:38:42.556Z,21.18
2023-03-13T13:41:45.651Z,21.12
2023-03-13T13:44:59.613Z,21.26
2023-03-13T13:48:31.040Z,21.30
2023-03-13T13:51:37.237Z,21.29
2023-03-13T13:54:56.339Z,21.21
2023-03-13T13:58:05.575Z,21.24
2023-03-13T14:01:11.250Z,21.28
2023-03-13T14:04:20.744Z,21.21
2023-03-13T14:07:31.434Z,21.13
2023-03-13T14:10:40.374Z,21.11
2023-03-13T14:13:43.747Z,21.19
2023-03-13T14:16:48.203Z,21.26
2023-03-13T14:19:51.013Z,21.24
2023-03-13T14:22:57.373Z,21.32
2023-03-13T14:26:10.624Z,21.48
2023-03-13T14:29:20.494Z,21.53
2023-03-13T14:32:27.183Z,21.77
2023-03-13T14:35:30.155Z,21.92
2023-03-13T14:38:34.489Z,22.06
2023-03-13T14:41:43.137Z,22.16
2023-03-13T14:44:50.120Z,22.31
2023-03-13T14:47:54.452Z,22.43
2023-03-13T14:51:14.791Z,22.66
2023-03-13T14:54:31.262Z,22.76
2023-03-13T14:57:35.503Z,22.80
2023-03-13T15:00:41.600Z,22.72
2023-03-13T15:03:46.507Z,22.77
2023-03-13T15:06:49.147Z,22.76
2023-03-13T15:09:53.712Z,22.74
2023-03-13T15:12:56.353Z,22.64
2023-03-13T15:15:59.234Z,22.43
2023-03-13T15:19:01.891Z,22.08
2023-03-13T15:22:04.718Z,21.96
2023-03-13T15:25:17.365Z,21.84
2023-03-13T15:28:22.057Z,21.82
2023-03-13T15:31:27.626Z,21.64
2023-03-13T15:34:33.889Z,21.50
2023-03-13T15:37:36.919Z,21.36
2023-03-13T15:40:41.280Z,21.43
2023-03-13T15:43:43.887Z,21.27
2023-03-13T15:46:48.015Z,21.39
2023-03-13T15:49:50.708Z,21.29
2023-03-13T15:52:54.199Z,21.23
2023-03-13T15:56:00.285Z,21.16
2023-03-13T15:59:03.470Z,21.18
2023-03-13T16:02:15.158Z,21.20
2023-03-13T16:05:18.499Z,21.20
2023-03-13T16:08:34.807Z,21.19
2023-03-13T16:11:40.262Z,21.23
2023-03-13T16:14:42.943Z,21.18
2023-03-13T16:17:45.567Z,21.14
2023-03-13T16:20:49.223Z,21.04
2023-03-13T16:23:51.886Z,21.05
2023-03-13T16:26:55.898Z,20.87
2023-03-13T16:29:58.508Z,20.62
2023-03-13T16:33:04.119Z,20.64
2023-03-13T16:36:14.337Z,20.55
2023-03-13T16:39:17.140Z,20.33
2023-03-13T16:42:21.109Z,20.42
2023-03-13T16:45:24.368Z,20.21
2023-03-13T16:48:27.100Z,20.20
2023-03-13T16:51:30.202Z,20.02
2023-03-13T16:54:32.808Z,20.01
2023-03-13T16:57:37.155Z,20.10
2023-03-13T17:00:39.768Z,20.06
2023-03-13T17:03:42.598Z,20.13
2023-03-13T17:06:46.024Z,20.18
2023-03-13T17:09:48.823Z,19.99
2023-03-13T17:12:53.023Z,19.85
2023-03-13T17:15:55.702Z,19.60
2023-03-13T17:18:59.002Z,19.59
2023-03-13T17:22:01.833Z,19.48
2023-03-13T17:25:04.956Z,19.28
2023-03-13T17:28:13.691Z,19.08
2023-03-13T17:31:17.400Z,18.93
2023-03-13T17:34:20.570Z,18.69
2023-03-13T17:37:23.193Z,18.55
2023-03-13T17:40:28.301Z,18.43
2023-03-13T17:43:32.247Z,18.30
2023-03-13T17:46:39.209Z,18.14
2023-03-13T17:49:41.932Z,17.97
2023-03-13T17:52:44.662Z,17.87
2023-03-13T17:55:47.353Z,17.74
2023-03-13T17:58:54.328Z,17.64
2023-03-13T18:01:57.224Z,17.56
2023-03-13T18:05:00.751Z,17.49
2023-03-13T18:08:03.425Z,17.44
2023-03-13T18:11:06.552Z,17.38
2023-03-13T18:14:10.782Z,17.33
2023-03-13T18:17:19.659Z,17.26
2023-03-13T18:20:24.894Z,17.24
2023-03-13T18:23:27.552Z,17.21
2023-03-13T18:26:32.428Z,17.17
2023-03-13T18:29:36.400Z,17.26
2023-03-13T18:32:39.049Z,17.33
2023-03-13T18:35:41.704Z,17.12
2023-03-13T18:38:44.411Z,16.89
2023-03-13T18:41:49.382Z,16.62
2023-03-13T18:44:54.111Z,16.36
2023-03-13T18:47:59.833Z,15.99
2023-03-13T18:51:07.134Z,15.51
2023-03-13T18:54:13.016Z,15.13
2023-03-13T18:57:21.157Z,14.95
2023-03-13T19:00:31.064Z,14.82
2023-03-13T19:03:40.507Z,14.74
2023-03-13T19:06:48.015Z,14.71
2023-03-13T19:09:59.223Z,14.66
2023-03-13T19:13:06.029Z,14.69
2023-03-13T19:16:28.615Z,14.67
2023-03-13T19:19:34.010Z,14.60
2023-03-13T19:22:41.215Z,14.55
2023-03-13T19:25:47.223Z,14.56
2023-03-13T19:28:52.065Z,14.52
2023-03-13T19:32:05.373Z,14.50
2023-03-13T19:35:17.096Z,14.48
2023-03-13T19:38:26.126Z,14.36
2023-03-13T19:41:32.986Z,14.36
2023-03-13T19:44:40.426Z,14.43
2023-03-13T19:47:53.293Z,14.43
2023-03-13T19:50:59.547Z,14.36
2023-03-13T19:54:06.425Z,14.30
2023-03-13T19:57:17.436Z,14.25
2023-03-13T20:00:29.816Z,14.31
2023-03-13T20:03:40.092Z,14.27
2023-03-13T20:06:48.077Z,14.17
2023-03-13T20:09:55.396Z,14.15
2023-03-13T20:13:00.704Z,13.61
2023-03-13T20:16:06.208Z,13.16
2023-03-13T20:19:13.419Z,12.66
2023-03-13T20:22:21.722Z,12.40
2023-03-13T20:25:29.335Z,12.21
2023-03-13T20:28:35.479Z,12.12
2023-03-13T20:31:41.448Z,11.97
2023-03-13T20:34:48.372Z,11.88
2023-03-13T20:37:58.617Z,11.91
2023-03-13T20:41:06.222Z,11.93
2023-03-13T20:44:12.095Z,11.99
2023-03-13T20:47:19.645Z,11.95
2023-03-13T20:50:26.552Z,11.93
2023-03-13T20:53:31.004Z,12.02
2023-03-13T20:56:37.393Z,12.16
2023-03-13T20:59:49.923Z,12.19
2023-03-13T21:02:56.014Z,12.38
2023-03-13T21:06:02.597Z,12.33
2023-03-13T21:09:11.661Z,12.36
2023-03-13T21:12:18.387Z,12.32
2023-03-13T21:15:27.633Z,12.24
2023-03-13T21:18:32.235Z,12.27
2023-03-13T21:21:40.142Z,12.36
2023-03-13T21:24:48.136Z,12.33
2023-03-13T21:27:53.734Z,12.33
2023-03-13T21:31:02.397Z,12.35
2023-03-13T21:34:09.410Z,12.31
2023-03-13T21:37:25.415Z,12.19
2023-03-13T21:40:32.013Z,12.10
2023-03-13T21:43:37.837Z,12.03
2023-03-13T21:46:48.800Z,12.04
2023-03-13T21:49:56.058Z,12.04
2023-03-13T21:53:03.703Z,12.11
2023-03-13T21:56:09.903Z,12.16
2023-03-13T21:59:15.044Z,12.07
2023-03-13T22:02:20.876Z,12.05
2023-03-13T22:05:26.710Z,12.08
2023-03-13T22:08:35.353Z,12.14
2023-03-13T22:11:43.548Z,12.10
2023-03-13T22:14:46.978Z,12.11
2023-03-13T22:17:52.596Z,12.05
2023-03-13T22:21:00.675Z,12.09
2023-03-13T22:24:09.026Z,11.97
2023-03-13T22:27:12.932Z,11.99
2023-03-13T22:30:16.551Z,11.95
2023-03-13T22:33:20.788Z,11.92
2023-03-13T22:36:27.083Z,11.94
2023-03-13T22:39:36.676Z,11.84
2023-03-13T22:42:42.148Z,11.85
2023-03-13T22:45:49.118Z,11.81
2023-03-13T22:48:53.214Z,11.96
2023-03-13T22:51:57.260Z,11.98
2023-03-13T22:55:05.437Z,12.00
2023-03-13T22:58:11.788Z,11.96
2023-03-13T23:01:18.536Z,11.98
2023-03-13T23:04:23.284Z,12.05
2023-03-13T23:07:28.922Z,12.06
2023-03-13T23:10:35.003Z,12.18
2023-03-13T23:13:38.448Z,12.27
2023-03-13T23:16:41.885Z,12.26
2023-03-13T23:19:45.446Z,12.21
2023-03-13T23:22:50.223Z,11.99
2023-03-13T23:25:54.353Z,11.95
2023-03-13T23:28:57.143Z,11.85
2023-03-13T23:31:59.928Z,11.75
2023-03-13T23:35:03.440Z,11.73
2023-03-13T23:38:06.299Z,11.76
2023-03-13T23:41:12.751Z,11.79
2023-03-13T23:44:15.592Z,11.93
2023-03-13T23:47:18.306Z,12.07
2023-03-13T23:50:21.320Z,11.96
2023-03-13T23:53:24.272Z,11.98
2023-03-13T23:56:29.637Z,11.94
2023-03-13T23:59:32.508Z,12.04
